createdAt,value
2017-11-17T00:00:58.533Z,10.60
2017-11-17T00:03:25.469Z,10.70
2017-11-17T00:05:52.424Z,10.70
2017-11-17T00:08:19.358Z,10.70
2017-11-17T00:10:45.560Z,10.70
2017-11-17T00:13:11.762Z,10.70
2017-11-17T00:15:37.938Z,10.80
2017-11-17T00:18:04.091Z,10.80
2017-11-17T00:20:30.308Z,10.80
2017-11-17T00:22:56.495Z,10.40
2017-11-17T00:25:22.670Z,10.70
2017-11-17T00:27:48.981Z,10.70
2017-11-17T00:30:15.182Z,10.80
2017-11-17T00:32:42.138Z,10.80
2017-11-17T00:35:08.411Z,10.80
2017-11-17T00:37:34.616Z,10.80
2017-11-17T00:40:01.534Z,10.80
2017-11-17T00:42:27.776Z,10.80
2017-11-17T00:44:54.718Z,10.80
2017-11-17T00:47:20.894Z,10.80
2017-11-17T00:49:47.102Z,10.80
2017-11-17T00:52:14.029Z,10.70
2017-11-17T00:54:40.247Z,10.70
2017-11-17T00:57:06.454Z,10.80
2017-11-17T00:59:32.649Z,10.80
2017-11-17T01:01:58.826Z,10.80
2017-11-17T01:04:25.077Z,10.70
2017-11-17T01:06:51.258Z,10.80
2017-11-17T01:09:18.178Z,10.80
2017-11-17T01:11:44.389Z,10.80
2017-11-17T01:14:10.570Z,10.90
2017-11-17T01:16:37.505Z,10.60
2017-11-17T01:19:03.699Z,10.70
2017-11-17T01:21:29.867Z,10.60
2017-11-17T01:23:56.059Z,10.50
2017-11-17T01:26:22.278Z,10.50
2017-11-17T01:28:48.536Z,10.40
2017-11-17T01:31:14.734Z,10.40
2017-11-17T01:33:41.683Z,10.40
2017-11-17T01:36:08.606Z,10.40
2017-11-17T01:38:34.802Z,10.40
2017-11-17T01:41:01.019Z,10.40
2017-11-17T01:43:27.250Z,10.40
2017-11-17T01:45:53.446Z,10.50
2017-11-17T01:48:19.664Z,10.40
2017-11-17T01:50:45.900Z,10.40
2017-11-17T01:53:12.095Z,10.50
2017-11-17T01:55:38.288Z,10.40
2017-11-17T01:58:04.501Z,10.40
2017-11-17T02:00:30.680Z,10.40
2017-11-17T02:02:57.625Z,10.40
2017-11-17T02:05:24.530Z,10.30
2017-11-17T02:07:50.773Z,10.40
2017-11-17T02:10:16.969Z,10.30
2017-11-17T02:12:43.186Z,10.30
2017-11-17T02:15:10.147Z,10.20
2017-11-17T02:17:36.371Z,10.10
2017-11-17T02:20:02.597Z,10.20
2017-11-17T02:22:28.778Z,10.20
2017-11-17T02:24:54.962Z,10.20
2017-11-17T02:27:21.886Z,10.20
2017-11-17T02:29:48.146Z,10.20
2017-11-17T02:32:15.122Z,10.20
2017-11-17T02:34:41.314Z,10.20
2017-11-17T02:37:07.501Z,10.10
2017-11-17T02:39:33.694Z,10.10
2017-11-17T02:41:59.908Z,10.00
2017-11-17T02:44:26.133Z,10.00
2017-11-17T02:46:52.331Z,10.00
2017-11-17T02:49:18.511Z,9.90
2017-11-17T02:51:44.701Z,9.90
2017-11-17T02:54:10.913Z,10.00
2017-11-17T02:56:37.850Z,10.00
2017-11-17T02:59:04.046Z,10.10
2017-11-17T03:01:30.256Z,10.00
2017-11-17T03:03:56.511Z,10.00
2017-11-17T03:06:22.734Z,10.00
2017-11-17T03:08:48.929Z,10.10
2017-11-17T03:11:15.849Z,9.90
2017-11-17T03:13:42.030Z,9.90
2017-11-17T03:16:09.020Z,9.90
2017-11-17T03:18:35.234Z,9.90
2017-11-17T03:21:01.425Z,9.80
2017-11-17T03:23:28.382Z,9.80
2017-11-17T03:25:55.327Z,9.80
2017-11-17T03:28:22.262Z,9.80
2017-11-17T03:30:50.987Z,9.80
2017-11-17T03:33:17.177Z,9.80
2017-11-17T03:35:43.359Z,9.80
2017-11-17T03:38:09.549Z,9.80
2017-11-17T03:40:35.722Z,9.80
2017-11-17T03:43:01.905Z,9.80
2017-11-17T03:45:28.118Z,9.80
2017-11-17T03:47:54.302Z,9.80
2017-11-17T03:50:20.501Z,9.70
2017-11-17T03:52:46.731Z,9.70
2017-11-17T03:55:12.907Z,9.60
2017-11-17T03:57:39.818Z,9.60
2017-11-17T04:00:06.033Z,9.60
2017-11-17T04:02:32.221Z,9.80
2017-11-17T04:04:58.398Z,9.50
2017-11-17T04:07:24.591Z,9.50
2017-11-17T04:09:51.556Z,9.60
2017-11-17T04:12:18.486Z,9.60
2017-11-17T04:14:44.687Z,9.60
2017-11-17T04:17:10.859Z,9.60
2017-11-17T04:19:37.803Z,9.50
2017-11-17T04:22:04.030Z,9.50
2017-11-17T04:24:30.205Z,9.50
2017-11-17T04:26:56.383Z,9.50
2017-11-17T04:29:22.595Z,9.50
2017-11-17T04:31:49.941Z,9.50
2017-11-17T04:34:16.137Z,9.40
2017-11-17T04:36:43.106Z,9.40
2017-11-17T04:39:09.289Z,9.40
2017-11-17T04:41:35.490Z,9.40
2017-11-17T04:44:01.730Z,9.20
2017-11-17T04:46:28.637Z,9.40
2017-11-17T04:48:55.577Z,9.40
2017-11-17T04:51:21.783Z,9.40
2017-11-17T04:53:47.986Z,9.30
2017-11-17T04:56:14.179Z,9.30
2017-11-17T04:58:41.138Z,9.30
2017-11-17T05:01:07.314Z,9.30
2017-11-17T05:03:33.507Z,9.10
2017-11-17T05:05:59.845Z,9.20
2017-11-17T05:08:26.018Z,9.20
2017-11-17T05:10:52.215Z,9.10
2017-11-17T05:13:20.054Z,9.10
2017-11-17T05:15:46.246Z,9.10
2017-11-17T05:18:12.426Z,9.10
2017-11-17T05:20:38.625Z,9.00
2017-11-17T05:23:04.832Z,9.00
2017-11-17T05:25:31.033Z,8.90
2017-11-17T05:27:58.006Z,8.90
2017-11-17T05:30:24.169Z,8.90
2017-11-17T05:32:50.383Z,8.90
2017-11-17T05:35:17.314Z,8.90
2017-11-17T05:37:43.503Z,8.80
2017-11-17T05:40:09.683Z,8.80
2017-11-17T05:42:36.651Z,8.80
2017-11-17T05:45:03.574Z,8.90
2017-11-17T05:47:29.757Z,8.80
2017-11-17T05:49:55.950Z,8.80
2017-11-17T05:52:22.174Z,8.80
2017-11-17T05:54:49.137Z,8.80
2017-11-17T05:57:16.067Z,8.80
2017-11-17T05:59:42.271Z,8.70
2017-11-17T06:02:08.449Z,8.80
2017-11-17T06:04:37.189Z,8.80
2017-11-17T06:07:05.377Z,8.70
2017-11-17T06:09:32.846Z,8.70
2017-11-17T06:11:59.867Z,8.70
2017-11-17T06:14:26.121Z,8.70
2017-11-17T06:16:52.347Z,8.70
2017-11-17T06:19:18.602Z,8.60
2017-11-17T06:21:44.805Z,8.60
2017-11-17T06:24:11.073Z,8.70
2017-11-17T06:26:37.267Z,8.60
2017-11-17T06:29:03.490Z,8.60
2017-11-17T06:31:30.463Z,8.60
2017-11-17T06:33:57.590Z,8.60
2017-11-17T06:36:23.933Z,8.60
2017-11-17T06:38:50.874Z,8.60
2017-11-17T06:41:17.206Z,8.60
2017-11-17T06:43:43.482Z,8.60
2017-11-17T06:46:09.766Z,8.60
2017-11-17T06:48:35.999Z,8.60
2017-11-17T06:51:02.241Z,8.50
2017-11-17T06:53:28.438Z,8.50
2017-11-17T06:55:54.640Z,8.50
2017-11-17T06:58:21.581Z,8.50
2017-11-17T07:00:47.791Z,8.50
2017-11-17T07:03:14.019Z,8.50
2017-11-17T07:05:40.239Z,8.50
2017-11-17T07:08:06.443Z,8.50
2017-11-17T07:10:32.697Z,8.50
2017-11-17T07:12:58.894Z,8.50
2017-11-17T07:15:25.868Z,8.60
2017-11-17T07:17:52.109Z,8.60
2017-11-17T07:20:18.294Z,8.70
2017-11-17T07:22:44.506Z,8.70
2017-11-17T07:25:10.752Z,8.70
2017-11-17T07:27:37.741Z,8.70
2017-11-17T07:30:04.687Z,8.80
2017-11-17T07:32:30.909Z,8.80
2017-11-17T07:34:57.309Z,8.80
2017-11-17T07:37:24.261Z,8.80
2017-11-17T07:39:50.530Z,8.80
2017-11-17T07:42:17.466Z,8.80
2017-11-17T07:44:43.662Z,8.80
2017-11-17T07:47:09.878Z,8.80
2017-11-17T07:49:36.053Z,8.80
2017-11-17T07:52:02.240Z,8.80
2017-11-17T07:54:29.170Z,8.90
2017-11-17T07:56:55.337Z,8.80
2017-11-17T07:59:21.543Z,8.90
2017-11-17T08:01:48.490Z,8.90
2017-11-17T08:04:15.433Z,8.90
2017-11-17T08:06:41.625Z,8.90
2017-11-17T08:09:07.873Z,8.90
2017-11-17T08:11:34.074Z,8.90
2017-11-17T08:14:00.261Z,9.00
2017-11-17T08:16:26.466Z,9.00
2017-11-17T08:18:52.658Z,9.00
2017-11-17T08:21:18.844Z,8.90
2017-11-17T08:23:45.038Z,8.80
2017-11-17T08:26:11.246Z,8.80
2017-11-17T08:28:38.174Z,8.70
2017-11-17T08:31:04.393Z,8.70
2017-11-17T08:33:30.594Z,8.70
2017-11-17T08:35:57.294Z,8.80
2017-11-17T08:38:23.521Z,8.80
2017-11-17T08:40:49.702Z,8.90
2017-11-17T08:43:15.900Z,8.90
2017-11-17T08:45:42.146Z,8.90
2017-11-17T08:48:09.122Z,9.00
2017-11-17T08:50:35.311Z,9.00
2017-11-17T08:53:01.527Z,9.00
2017-11-17T08:55:27.706Z,9.00
2017-11-17T08:57:54.625Z,8.90
2017-11-17T09:00:20.798Z,8.90
2017-11-17T09:02:47.569Z,9.00
2017-11-17T09:05:13.761Z,9.00
2017-11-17T09:07:40.690Z,9.00
2017-11-17T09:10:06.846Z,9.00
2017-11-17T09:12:33.753Z,8.90
2017-11-17T09:14:59.942Z,9.00
2017-11-17T09:17:26.855Z,8.90
2017-11-17T09:19:53.018Z,8.90
2017-11-17T09:22:19.951Z,8.90
2017-11-17T09:24:46.130Z,8.90
2017-11-17T09:27:12.317Z,8.80
2017-11-17T09:29:38.552Z,8.80
2017-11-17T09:32:04.762Z,8.90
2017-11-17T09:34:30.925Z,8.80
2017-11-17T09:36:58.142Z,8.90
2017-11-17T09:39:24.318Z,8.90
2017-11-17T09:41:50.547Z,9.00
2017-11-17T09:44:16.767Z,9.00
2017-11-17T09:46:42.951Z,9.00
2017-11-17T09:49:09.119Z,9.00
2017-11-17T09:51:35.310Z,9.10
2017-11-17T09:54:01.478Z,9.10
2017-11-17T09:56:27.675Z,9.10
2017-11-17T09:58:53.900Z,9.10
2017-11-17T10:01:20.814Z,9.10
2017-11-17T10:03:47.005Z,9.10
2017-11-17T10:06:13.199Z,9.10
2017-11-17T10:08:39.378Z,9.10
2017-11-17T10:11:05.578Z,9.20
2017-11-17T10:13:32.494Z,9.20
2017-11-17T10:15:58.698Z,9.20
2017-11-17T10:18:24.868Z,9.20
2017-11-17T10:20:51.095Z,9.30
2017-11-17T10:23:17.286Z,9.30
2017-11-17T10:25:43.490Z,9.30
2017-11-17T10:28:09.675Z,9.30
2017-11-17T10:30:35.839Z,9.40
2017-11-17T10:33:02.023Z,9.40
2017-11-17T10:35:28.273Z,9.40
2017-11-17T10:37:54.530Z,9.40
2017-11-17T10:40:20.710Z,9.40
2017-11-17T10:42:46.947Z,9.40
2017-11-17T10:45:13.110Z,9.50
2017-11-17T10:47:39.294Z,9.50
2017-11-17T10:50:05.486Z,9.50
2017-11-17T10:52:31.679Z,9.50
2017-11-17T10:54:58.607Z,9.50
2017-11-17T10:57:25.548Z,9.50
2017-11-17T10:59:51.754Z,9.50
2017-11-17T11:02:17.958Z,9.50
2017-11-17T11:04:44.135Z,9.50
2017-11-17T11:07:10.315Z,9.50
2017-11-17T11:09:37.206Z,9.50
2017-11-17T11:12:03.396Z,9.50
2017-11-17T11:14:30.319Z,9.50
2017-11-17T11:16:56.517Z,9.50
2017-11-17T11:19:22.730Z,9.50
2017-11-17T11:21:48.926Z,9.50
2017-11-17T11:24:15.117Z,9.70
2017-11-17T11:26:41.312Z,9.60
2017-11-17T11:29:08.227Z,9.60
2017-11-17T11:31:34.459Z,9.60
2017-11-17T11:34:00.649Z,9.60
2017-11-17T11:36:26.841Z,9.70
2017-11-17T11:38:53.849Z,9.70
2017-11-17T11:41:20.061Z,9.70
2017-11-17T11:43:46.222Z,9.70
2017-11-17T11:46:12.399Z,9.70
2017-11-17T11:48:38.604Z,9.70
2017-11-17T11:51:04.803Z,9.70
2017-11-17T11:53:30.973Z,9.70
2017-11-17T11:55:57.170Z,9.70
2017-11-17T11:58:23.352Z,9.80
2017-11-17T12:00:49.542Z,9.90
2017-11-17T12:03:15.772Z,9.90
2017-11-17T12:05:41.957Z,9.90
2017-11-17T12:08:08.166Z,9.80
2017-11-17T12:10:34.406Z,9.70
2017-11-17T12:13:00.620Z,9.90
2017-11-17T12:15:26.784Z,10.00
2017-11-17T12:17:52.974Z,10.00
2017-11-17T12:20:19.172Z,10.00
2017-11-17T12:22:45.367Z,10.10
2017-11-17T12:25:11.576Z,10.20
2017-11-17T12:27:37.770Z,10.20
2017-11-17T12:30:04.012Z,10.30
2017-11-17T12:32:30.981Z,10.30
2017-11-17T12:34:57.984Z,10.30
2017-11-17T12:37:25.041Z,10.30
2017-11-17T12:39:51.589Z,10.30
2017-11-17T12:42:19.242Z,10.20
2017-11-17T12:44:45.407Z,10.20
2017-11-17T12:47:12.362Z,10.20
2017-11-17T12:49:39.286Z,10.10
2017-11-17T12:52:05.483Z,10.10
2017-11-17T12:54:31.670Z,10.10
2017-11-17T12:56:57.890Z,10.10
2017-11-17T12:59:24.063Z,10.10
2017-11-17T13:01:54.336Z,10.10
2017-11-17T13:04:21.437Z,10.10
2017-11-17T13:06:48.366Z,10.10
2017-11-17T13:09:14.579Z,10.10
2017-11-17T13:11:40.746Z,10.10
2017-11-17T13:14:07.658Z,10.10
2017-11-17T13:16:33.842Z,10.10
2017-11-17T13:19:00.766Z,10.20
2017-11-17T13:21:26.959Z,10.20
2017-11-17T13:23:53.159Z,10.20
2017-11-17T13:26:20.153Z,10.20
2017-11-17T13:28:46.345Z,10.20
2017-11-17T13:31:13.311Z,10.10
2017-11-17T13:33:39.520Z,10.10
2017-11-17T13:36:05.769Z,10.10
2017-11-17T13:38:32.734Z,10.10
2017-11-17T13:40:58.987Z,9.90
2017-11-17T13:43:25.207Z,10.10
2017-11-17T13:45:51.423Z,10.10
2017-11-17T13:48:18.350Z,10.10
2017-11-17T13:50:44.546Z,10.10
2017-11-17T13:53:10.794Z,10.10
2017-11-17T13:55:36.983Z,10.10
2017-11-17T13:58:03.146Z,10.10
2017-11-17T14:00:29.348Z,10.20
2017-11-17T14:02:55.522Z,10.20
2017-11-17T14:05:21.684Z,10.20
2017-11-17T14:07:47.878Z,10.20
2017-11-17T14:10:14.069Z,9.80
2017-11-17T14:12:40.977Z,10.10
2017-11-17T14:15:07.171Z,10.10
2017-11-17T14:17:34.098Z,10.10
2017-11-17T14:20:01.030Z,10.00
2017-11-17T14:22:27.233Z,10.00
2017-11-17T14:24:53.428Z,10.00
2017-11-17T14:27:20.368Z,10.00
2017-11-17T14:29:46.566Z,10.00
2017-11-17T14:32:12.747Z,10.00
2017-11-17T14:34:39.693Z,10.00
2017-11-17T14:37:06.664Z,10.00
2017-11-17T14:39:32.833Z,10.00
2017-11-17T14:41:59.590Z,10.00
2017-11-17T14:44:26.000Z,10.00
2017-11-17T14:46:52.295Z,10.00
2017-11-17T14:49:18.542Z,10.00
2017-11-17T14:51:44.850Z,10.00
2017-11-17T14:54:11.860Z,10.00
2017-11-17T14:56:38.123Z,10.00
2017-11-17T14:59:04.511Z,10.00
2017-11-17T15:01:30.756Z,10.10
2017-11-17T15:03:57.015Z,10.10
2017-11-17T15:06:23.268Z,10.20
2017-11-17T15:08:50.319Z,10.00
2017-11-17T15:11:16.641Z,10.00
2017-11-17T15:13:43.027Z,10.00
2017-11-17T15:16:09.420Z,9.80
2017-11-17T15:18:35.743Z,9.80
2017-11-17T15:21:02.740Z,9.70
2017-11-17T15:23:28.958Z,9.70
2017-11-17T15:25:55.915Z,9.60
2017-11-17T15:28:22.882Z,9.50
2017-11-17T15:30:49.798Z,9.50
2017-11-17T15:33:15.992Z,9.50
2017-11-17T15:35:42.216Z,9.40
2017-11-17T15:38:08.438Z,9.50
2017-11-17T15:40:35.381Z,9.40
2017-11-17T15:43:02.526Z,9.40
2017-11-17T15:45:28.759Z,9.40
2017-11-17T15:47:56.468Z,9.40
2017-11-17T15:50:22.694Z,9.30
2017-11-17T15:52:48.885Z,9.30
2017-11-17T15:55:15.074Z,9.40
2017-11-17T15:57:41.270Z,9.40
2017-11-17T16:00:07.433Z,9.40
2017-11-17T16:02:33.606Z,9.40
2017-11-17T16:04:59.818Z,9.40
2017-11-17T16:07:25.995Z,9.30
2017-11-17T16:09:52.901Z,9.30
2017-11-17T16:12:19.099Z,9.30
2017-11-17T16:14:46.014Z,9.20
2017-11-17T16:17:12.198Z,9.20
2017-11-17T16:19:39.143Z,9.20
2017-11-17T16:22:06.053Z,9.20
2017-11-17T16:24:32.375Z,9.20
2017-11-17T16:26:59.364Z,9.20
2017-11-17T16:29:25.546Z,9.20
2017-11-17T16:31:51.734Z,9.20
2017-11-17T16:34:18.637Z,9.20
2017-11-17T16:36:44.904Z,9.20
2017-11-17T16:39:11.106Z,9.20
2017-11-17T16:41:37.351Z,9.20
2017-11-17T16:44:03.648Z,9.30
2017-11-17T16:46:29.826Z,9.30
2017-11-17T16:48:56.038Z,9.30
2017-11-17T16:51:22.304Z,9.20
2017-11-17T16:53:49.270Z,9.20
2017-11-17T16:56:16.289Z,9.20
2017-11-17T16:58:42.500Z,8.90
2017-11-17T17:01:08.695Z,9.20
2017-11-17T17:03:34.881Z,9.20
2017-11-17T17:06:01.144Z,9.20
2017-11-17T17:08:27.367Z,9.20
2017-11-17T17:10:53.550Z,9.20
2017-11-17T17:13:19.779Z,9.20
2017-11-17T17:15:46.009Z,9.20
2017-11-17T17:18:12.940Z,9.20
2017-11-17T17:20:39.144Z,9.20
2017-11-17T17:23:05.335Z,9.00
2017-11-17T17:25:32.265Z,9.20
2017-11-17T17:27:59.211Z,9.30
2017-11-17T17:30:26.911Z,9.30
2017-11-17T17:32:53.830Z,9.30
2017-11-17T17:35:20.003Z,9.30
2017-11-17T17:37:46.909Z,9.30
2017-11-17T17:40:13.102Z,9.30
2017-11-17T17:42:39.280Z,9.30
2017-11-17T17:45:05.549Z,9.20
2017-11-17T17:47:31.749Z,9.20
2017-11-17T17:49:57.935Z,9.20
2017-11-17T17:52:24.120Z,9.20
2017-11-17T17:54:50.363Z,9.20
2017-11-17T17:57:16.533Z,9.10
2017-11-17T17:59:42.694Z,9.10
2017-11-17T18:02:08.898Z,9.20
2017-11-17T18:04:35.102Z,9.10
2017-11-17T18:07:01.383Z,9.10
2017-11-17T18:09:27.622Z,9.10
2017-11-17T18:11:53.812Z,9.10
2017-11-17T18:14:20.010Z,9.10
2017-11-17T18:16:46.198Z,9.10
2017-11-17T18:19:12.370Z,9.10
2017-11-17T18:21:38.602Z,9.00
2017-11-17T18:24:04.811Z,9.00
2017-11-17T18:26:30.953Z,9.00
2017-11-17T18:28:57.141Z,9.00
2017-11-17T18:31:24.086Z,9.00
2017-11-17T18:33:51.071Z,9.00
2017-11-17T18:36:17.298Z,9.00
2017-11-17T18:38:43.518Z,9.00
2017-11-17T18:41:09.682Z,9.00
2017-11-17T18:43:35.926Z,9.00
2017-11-17T18:46:02.301Z,8.90
2017-11-17T18:48:28.468Z,8.90
2017-11-17T18:50:54.630Z,8.90
2017-11-17T18:53:20.873Z,8.90
2017-11-17T18:55:47.089Z,8.90
2017-11-17T18:58:13.223Z,8.90
2017-11-17T19:00:39.407Z,8.90
2017-11-17T19:03:05.581Z,8.90
2017-11-17T19:05:31.790Z,9.00
2017-11-17T19:07:58.765Z,9.00
2017-11-17T19:10:25.675Z,9.00
2017-11-17T19:12:51.937Z,8.90
2017-11-17T19:15:19.760Z,8.90
2017-11-17T19:17:45.921Z,8.90
2017-11-17T19:20:12.113Z,8.90
2017-11-17T19:22:38.299Z,8.90
2017-11-17T19:25:05.207Z,8.90
2017-11-17T19:27:31.374Z,8.90
2017-11-17T19:29:58.311Z,8.90
2017-11-17T19:32:24.466Z,8.90
2017-11-17T19:34:51.394Z,8.90
2017-11-17T19:37:19.068Z,8.90
2017-11-17T19:39:46.006Z,8.90
2017-11-17T19:42:12.174Z,8.90
2017-11-17T19:44:39.103Z,8.80
2017-11-17T19:47:05.479Z,8.80
2017-11-17T19:49:31.665Z,8.80
2017-11-17T19:51:57.858Z,8.80
2017-11-17T19:54:24.022Z,8.80
2017-11-17T19:56:50.194Z,8.80
2017-11-17T19:59:17.134Z,8.70
2017-11-17T20:01:43.365Z,8.70
2017-11-17T20:04:10.347Z,8.60
2017-11-17T20:06:36.587Z,8.60
2017-11-17T20:09:02.792Z,8.70
2017-11-17T20:11:29.726Z,8.60
2017-11-17T20:13:56.761Z,8.70
2017-11-17T20:16:23.020Z,8.70
2017-11-17T20:18:49.248Z,8.60
2017-11-17T20:21:16.217Z,8.70
2017-11-17T20:23:42.467Z,8.70
2017-11-17T20:26:09.362Z,8.70
2017-11-17T20:28:35.617Z,8.70
2017-11-17T20:31:01.806Z,8.70
2017-11-17T20:33:28.018Z,8.70
2017-11-17T20:35:54.968Z,8.80
2017-11-17T20:38:21.154Z,8.80
2017-11-17T20:40:47.327Z,8.80
2017-11-17T20:43:14.362Z,8.80
2017-11-17T20:45:40.535Z,8.70
2017-11-17T20:48:06.994Z,8.80
2017-11-17T20:50:33.203Z,8.80
2017-11-17T20:52:59.385Z,8.80
2017-11-17T20:55:25.567Z,8.70
2017-11-17T20:57:51.755Z,8.80
2017-11-17T21:00:18.701Z,8.70
2017-11-17T21:02:44.894Z,8.80
2017-11-17T21:05:11.106Z,8.70
2017-11-17T21:07:38.037Z,8.60
2017-11-17T21:10:04.215Z,8.70
2017-11-17T21:12:30.426Z,8.60
2017-11-17T21:14:57.330Z,8.70
2017-11-17T21:17:23.522Z,8.70
2017-11-17T21:19:49.726Z,8.70
2017-11-17T21:22:15.913Z,8.70
2017-11-17T21:24:42.094Z,8.70
2017-11-17T21:27:09.078Z,8.70
2017-11-17T21:29:35.298Z,8.70
2017-11-17T21:32:02.231Z,8.60
2017-11-17T21:34:29.206Z,8.60
2017-11-17T21:36:55.398Z,8.60
2017-11-17T21:39:21.578Z,8.70
2017-11-17T21:41:48.505Z,8.70
2017-11-17T21:44:15.426Z,8.70
2017-11-17T21:46:41.597Z,8.70
2017-11-17T21:49:08.630Z,8.70
2017-11-17T21:51:35.575Z,8.70
2017-11-17T21:54:01.808Z,8.70
2017-11-17T21:56:28.016Z,8.70
2017-11-17T21:58:54.241Z,8.80
2017-11-17T22:01:20.445Z,8.80
2017-11-17T22:03:46.663Z,8.90
2017-11-17T22:06:13.570Z,8.80
2017-11-17T22:08:39.764Z,8.80
2017-11-17T22:11:06.690Z,8.80
2017-11-17T22:13:32.898Z,8.80
2017-11-17T22:15:59.087Z,8.70
2017-11-17T22:18:25.282Z,8.70
2017-11-17T22:20:51.504Z,8.60
2017-11-17T22:23:18.457Z,8.60
2017-11-17T22:25:44.686Z,8.60
2017-11-17T22:28:10.822Z,8.60
2017-11-17T22:30:37.015Z,8.60
2017-11-17T22:33:03.217Z,8.60
2017-11-17T22:35:29.400Z,8.70
2017-11-17T22:37:55.602Z,8.70
2017-11-17T22:40:22.552Z,8.70
2017-11-17T22:42:49.458Z,8.70
2017-11-17T22:45:15.651Z,8.70
2017-11-17T22:47:41.866Z,8.70
2017-11-17T22:50:09.059Z,8.70
2017-11-17T22:52:35.238Z,8.60
2017-11-17T22:55:01.452Z,8.60
2017-11-17T22:57:27.649Z,8.70
2017-11-17T22:59:53.824Z,8.60
2017-11-17T23:02:20.789Z,8.60
2017-11-17T23:04:46.962Z,8.60
2017-11-17T23:07:13.149Z,8.70
2017-11-17T23:09:39.349Z,8.70
2017-11-17T23:12:05.543Z,8.70
2017-11-17T23:14:31.777Z,8.70
2017-11-17T23:16:58.025Z,8.70
2017-11-17T23:19:24.225Z,8.70
2017-11-17T23:21:50.410Z,8.70
2017-11-17T23:24:16.625Z,8.70
2017-11-17T23:26:42.804Z,8.70
2017-11-17T23:29:09.003Z,8.70
2017-11-17T23:31:35.206Z,8.70
2017-11-17T23:34:01.380Z,8.70
2017-11-17T23:36:27.561Z,8.60
2017-11-17T23:38:53.769Z,8.70
2017-11-17T23:41:19.956Z,8.60
2017-11-17T23:43:46.154Z,8.60
2017-11-17T23:46:12.399Z,8.60
2017-11-17T23:48:38.584Z,8.60
2017-11-17T23:51:04.867Z,8.60
2017-11-17T23:53:31.058Z,8.50
2017-11-17T23:55:57.223Z,8.60
2017-11-17T23:58:23.397Z,8.50
